Terminal Aerodrome Forecast
Issued by NWS

Home | Current Version | Previous Version | Text Only | Print | Product List | Glossary On
Versions: 1 2 3 4 5 6 7 8 9 10 11 12 13
000
FTUS45 KABQ 250500
TAFGUP
TAF
KGUP 250523Z 2506/2606 24010G20KT P6SM FEW045 BKN070
     FM250800 22011KT P6SM BKN030
     FM251000 21005KT P6SM VCFG OVC010
     FM251700 23010G18KT P6SM SCT040 SCT080
     FM252000 23018G30KT P6SM SCT070 SCT110
     FM260300 21010KT P6SM VCSH BKN060=

USA.gov is the U.S. government's official web portal to all federal, state and local government web resources and services.